Time;durP1;ratioP1;P1;durP2;ratioP2;P2;SDS_P1;SDS_P2;PMS_P1;PMS_P2;Temp;Humidity;BMP_temperature;BMP_pressure;BME280_temperature;BME280_humidity;BME280_pressure;Samples;Min_cycle;Max_cycle;Signal;HPM_P1;HPM_P2
2022/04/30 00:02:54;;;;;;;;;;;;;;;;;;8418236;27;28420;-72
2022/04/30 00:06:54;;;;;;;;;;;;;;;;;;8419399;27;28181;-72
2022/04/30 00:10:54;;;;;;;;;;;;;;;;;;8420707;27;27333;-72
2022/04/30 00:14:55;;;;;;;;;;;;;;;;;;8419724;27;27383;-72
2022/04/30 00:18:56;;;;;;;;;;;;;;;;;;8421517;27;28074;-72
2022/04/30 00:22:56;;;;;;;;;;;;;;;;;;8423899;27;27749;-72
2022/04/30 00:26:57;;;;;;;;;;;;;;;;;;8417326;27;27547;-72
2022/04/30 00:30:57;;;;;;;;;;;;;;;;;;8422408;27;27258;-72
2022/04/30 00:34:58;;;;;;;;;;;;;;;;;;8420514;27;28387;-72
2022/04/30 00:38:58;;;;;;;;;;;;;;;;;;8418919;27;46297;-72
2022/04/30 00:42:58;;;;;;;;;;;;;;;;;;8423510;27;27836;-72
2022/04/30 00:46:58;;;;;;;;;;;;;;;;;;8415540;27;27578;-72
2022/04/30 00:50:58;;;;;;;;;;;;;;;;;;8418126;27;27545;-72
2022/04/30 00:55:07;;;;;;;;;;;;;;;;;;8419413;27;27394;-72
2022/04/30 00:59:08;;;;;;;;;;;;;;;;;;8419815;27;28241;-72
2022/04/30 01:03:08;;;;;;;;;;;;;;;;;;8418726;27;28122;-72
2022/04/30 01:07:08;;;;;;;;;;;;;;;;;;8414020;27;28474;-72
2022/04/30 01:11:09;;;;;;;;;;;;;;;;;;8413641;27;27506;-72
2022/04/30 01:15:11;;;;;;;;;;;;;;;;;;8415891;27;27708;-72
2022/04/30 01:19:11;;;;;;;;;;;;;;;;;;8417100;27;28409;-72
2022/04/30 01:23:11;;;;;;;;;;;;;;;;;;8420667;27;27761;-72
2022/04/30 01:27:11;;;;;;;;;;;;;;;;;;8417225;27;27443;-72
2022/04/30 01:39:52;;;;;;;;;;;;;;;;;;8420828;27;27567;-72
2022/04/30 01:43:52;;;;;;;;;;;;;;;;;;8417093;27;27382;-72
2022/04/30 01:47:52;;;;;;;;;;;;;;;;;;8416365;27;27842;-72
2022/04/30 01:51:52;;;;;;;;;;;;;;;;;;8421400;27;28702;-72
2022/04/30 01:55:52;;;;;;;;;;;;;;;;;;8416604;27;28357;-72
2022/04/30 01:59:52;;;;;;;;;;;;;;;;;;8423625;27;27167;-72
2022/04/30 02:03:52;;;;;;;;;;;;;;;;;;8418466;27;28179;-72
2022/04/30 02:07:53;;;;;;;;;;;;;;;;;;8416268;27;27668;-72
2022/04/30 02:11:53;;;;;;;;;;;;;;;;;;8416667;27;28928;-72
2022/04/30 02:15:53;;;;;;;;;;;;;;;;;;8417897;27;28126;-72
2022/04/30 02:24:12;;;;;;;;;;;;;;;;;;8416567;27;27437;-72
2022/04/30 02:28:12;;;;;;;;;;;;;;;;;;8424138;27;27239;-73
2022/04/30 02:32:13;;;;;;;;;;;;;;;;;;8416380;27;28491;-72
2022/04/30 02:36:13;;;;;;;;;;;;;;;;;;8415923;27;28373;-72
2022/04/30 02:40:13;;;;;;;;;;;;;;;;;;8415758;27;27816;-72
2022/04/30 02:44:14;;;;;;;;;;;;;;;;;;8418730;27;27548;-72
2022/04/30 02:48:15;;;;;;;;;;;;;;;;;;8423626;27;27316;-72
2022/04/30 02:52:15;;;;;;;;;;;;;;;;;;8426204;27;27752;-72
2022/04/30 02:56:15;;;;;;;;;;;;;;;;;;8424191;27;27853;-72
2022/04/30 03:00:15;;;;;;;;;;;;;;;;;;8422101;27;27474;-72
2022/04/30 03:04:15;;;;;;;;;;;;;;;;;;8425347;27;27601;-72
2022/04/30 03:08:15;;;;;;;;;;;;;;;;;;8424994;27;28005;-72
2022/04/30 03:12:15;;;;;;;;;;;;;;;;;;8419974;27;27693;-72
2022/04/30 03:24:53;;;;;;;;;;;;;;;;;;8420012;27;28417;-72
2022/04/30 03:28:54;;;;;;;;;;;;;;;;;;8419926;27;27899;-72
2022/04/30 03:32:55;;;;;;;;;;;;;;;;;;8422865;27;28216;-72
2022/04/30 03:36:55;;;;;;;;;;;;;;;;;;8427243;27;29796;-72
2022/04/30 03:40:55;;;;;;;;;;;;;;;;;;8422676;27;27177;-72
2022/04/30 03:44:55;;;;;;;;;;;;;;;;;;8421962;27;27277;-72
2022/04/30 03:48:56;;;;;;;;;;;;;;;;;;8422701;27;29017;-72
2022/04/30 03:52:56;;;;;;;;;;;;;;;;;;8423204;27;28607;-72
2022/04/30 03:56:56;;;;;;;;;;;;;;;;;;8423782;27;28619;-72
2022/04/30 04:00:56;;;;;;;;;;;;;;;;;;8422077;27;27730;-72
2022/04/30 04:04:57;;;;;;;;;;;;;;;;;;8428180;27;27830;-72
2022/04/30 04:08:59;;;;;;;;;;;;;;;;;;8427198;27;28346;-72
2022/04/30 04:17:37;;;;;;;;;;;;;;;;;;8419860;27;27593;-72
2022/04/30 04:21:49;;;;;;;;;;;;;;;;;;8405687;27;27396;-72
2022/04/30 04:26:01;;;;;;;;;;;;;;;;;;8418078;27;29583;-73
2022/04/30 04:30:02;;;;;;;;;;;;;;;;;;8420938;27;27849;-72
2022/04/30 04:34:02;;;;;;;;;;;;;;;;;;8420212;27;27629;-72
2022/04/30 04:38:02;;;;;;;;;;;;;;;;;;8419252;27;27435;-72
2022/04/30 04:42:03;;;;;;;;;;;;;;;;;;8420678;27;27228;-72
2022/04/30 04:46:03;;;;;;;;;;;;;;;;;;8419791;27;27675;-72
2022/04/30 04:50:03;;;;;;;;;;;;;;;;;;8419531;27;27491;-72
2022/04/30 04:54:04;;;;;;;;;;;;;;;;;;8420956;27;27596;-72
2022/04/30 04:58:04;;;;;;;;;;;;;;;;;;8422586;27;27908;-72
2022/04/30 05:02:04;;;;;;;;;;;;;;;;;;8420915;27;27358;-72
2022/04/30 05:06:04;;;;;;;;;;;;;;;;;;8411798;27;28212;-72
2022/04/30 05:10:04;;;;;;;;;;;;;;;;;;8415070;27;27363;-72
2022/04/30 05:14:04;;;;;;;;;;;;;;;;;;8418217;27;27786;-72
2022/04/30 05:18:04;;;;;;;;;;;;;;;;;;8412121;27;27399;-72
2022/04/30 05:22:05;;;;;;;;;;;;;;;;;;8413323;27;28968;-72
2022/04/30 05:26:05;;;;;;;;;;;;;;;;;;8413739;27;27457;-72
2022/04/30 05:30:05;;;;;;;;;;;;;;;;;;8419108;27;28152;-72
2022/04/30 05:34:05;;;;;;;;;;;;;;;;;;8420115;27;27523;-72
2022/04/30 05:38:05;;;;;;;;;;;;;;;;;;8420821;27;28426;-72
2022/04/30 05:42:05;;;;;;;;;;;;;;;;;;8423221;27;28165;-72
2022/04/30 05:46:07;;;;;;;;;;;;;;;;;;8417147;27;29109;-72
2022/04/30 05:50:07;;;;;;;;;;;;;;;;;;8419182;27;28590;-72
2022/04/30 05:54:07;;;;;;;;;;;;;;;;;;8419319;27;27320;-72
2022/04/30 05:58:07;;;;;;;;;;;;;;;;;;8420147;27;28614;-72
2022/04/30 06:02:07;;;;;;;;;;;;;;;;;;8421854;27;27475;-72
2022/04/30 06:06:07;;;;;;;;;;;;;;;;;;8415120;27;28362;-72
2022/04/30 06:10:08;;;;;;;;;;;;;;;;;;8418475;27;27300;-73
2022/04/30 06:14:08;;;;;;;;;;;;;;;;;;8418106;27;28076;-72
2022/04/30 06:18:08;;;;;;;;;;;;;;;;;;8420508;27;28867;-72
2022/04/30 06:22:08;;;;;;;;;;;;;;;;;;8416556;27;27455;-72
2022/04/30 06:26:08;;;;;;;;;;;;;;;;;;8419706;27;28651;-72
2022/04/30 06:30:09;;;;;;;;;;;;;;;;;;8421656;27;27381;-72
2022/04/30 06:34:09;;;;;;;;;;;;;;;;;;8416959;27;27363;-72
2022/04/30 06:38:11;;;;;;;;;;;;;;;;;;8420105;27;27864;-72
2022/04/30 06:42:11;;;;;;;;;;;;;;;;;;8415966;27;28395;-72
2022/04/30 06:46:11;;;;;;;;;;;;;;;;;;8415016;27;27470;-72
2022/04/30 06:50:11;;;;;;;;;;;;;;;;;;8417611;27;28022;-72
2022/04/30 06:58:40;;;;;;;;;;;;;;;;;;8411993;27;27998;-73
2022/04/30 07:02:41;;;;;;;;;;;;;;;;;;8415595;27;28602;-72
2022/04/30 07:06:41;;;;;;;;;;;;;;;;;;8417684;27;27437;-73
2022/04/30 07:10:41;;;;;;;;;;;;;;;;;;8415687;27;27405;-72
2022/04/30 07:14:42;;;;;;;;;;;;;;;;;;8415205;27;27900;-73
2022/04/30 07:18:42;;;;;;;;;;;;;;;;;;8417932;27;27855;-72
2022/04/30 07:22:43;;;;;;;;;;;;;;;;;;8418330;27;28156;-72
2022/04/30 07:26:43;;;;;;;;;;;;;;;;;;8411957;27;28006;-73
2022/04/30 07:30:43;;;;;;;;;;;;;;;;;;8415734;27;27746;-72
2022/04/30 07:34:43;;;;;;;;;;;;;;;;;;8414552;27;27449;-73
2022/04/30 07:38:43;;;;;;;;;;;;;;;;;;8423887;27;27755;-72
2022/04/30 07:42:43;;;;;;;;;;;;;;;;;;8426476;27;28108;-72
2022/04/30 07:46:43;;;;;;;;;;;;;;;;;;8421808;27;28468;-72
2022/04/30 07:50:45;;;;;;;;;;;;;;;;;;8424930;27;29436;-72
2022/04/30 07:54:45;;;;;;;;;;;;;;;;;;8422150;27;28620;-72
2022/04/30 07:58:45;;;;;;;;;;;;;;;;;;8424282;27;27863;-72
2022/04/30 08:02:47;;;;;;;;;;;;;;;;;;8422191;27;28542;-73
2022/04/30 08:06:47;;;;;;;;;;;;;;;;;;8421369;27;27410;-72
2022/04/30 08:10:47;;;;;;;;;;;;;;;;;;8417112;27;28381;-72
2022/04/30 08:14:47;;;;;;;;;;;;;;;;;;8418823;27;27291;-73
2022/04/30 08:18:47;;;;;;;;;;;;;;;;;;8420539;27;27457;-72
2022/04/30 08:22:47;;;;;;;;;;;;;;;;;;8421956;27;28460;-72
2022/04/30 08:26:49;;;;;;;;;;;;;;;;;;8417083;27;28315;-72
2022/04/30 08:30:49;;;;;;;;;;;;;;;;;;8421567;27;27472;-72
2022/04/30 08:34:50;;;;;;;;;;;;;;;;;;8425772;27;27348;-72
2022/04/30 08:38:50;;;;;;;;;;;;;;;;;;8420073;27;28466;-72
2022/04/30 08:42:50;;;;;;;;;;;;;;;;;;8421296;27;29424;-72
2022/04/30 08:46:50;;;;;;;;;;;;;;;;;;8419227;27;27408;-73
2022/04/30 08:50:50;;;;;;;;;;;;;;;;;;8421148;27;27720;-72
2022/04/30 08:54:50;;;;;;;;;;;;;;;;;;8417564;27;28094;-72
2022/04/30 08:58:50;;;;;;;;;;;;;;;;;;8421619;27;28229;-72
2022/04/30 09:02:50;;;;;;;;;;;;;;;;;;8417541;27;27495;-72
2022/04/30 09:06:51;;;;;;;;;;;;;;;;;;8416543;27;27647;-72
2022/04/30 09:10:51;;;;;;;;;;;;;;;;;;8419954;27;27624;-72
2022/04/30 09:14:52;;;;;;;;;;;;;;;;;;8416813;27;28297;-72
2022/04/30 09:18:55;;;;;;;;;;;;;;;;;;8416633;27;27745;-72
2022/04/30 09:22:56;;;;;;;;;;;;;;;;;;8421742;27;27361;-72
2022/04/30 09:26:57;;;;;;;;;;;;;;;;;;8418835;27;28542;-72
2022/04/30 09:30:57;;;;;;;;;;;;;;;;;;8420893;27;27576;-72
2022/04/30 09:39:16;;;;;;;;;;;;;;;;;;8412867;27;28938;-73
2022/04/30 09:43:16;;;;;;;;;;;;;;;;;;8411696;27;29373;-73
2022/04/30 09:47:16;;;;;;;;;;;;;;;;;;8415208;27;27405;-73
2022/04/30 09:55:37;;;;;;;;;;;;;;;;;;8415092;27;27376;-73
2022/04/30 09:59:37;;;;;;;;;;;;;;;;;;8418684;27;28513;-72
2022/04/30 10:03:37;;;;;;;;;;;;;;;;;;8416048;27;27472;-72
2022/04/30 10:07:37;;;;;;;;;;;;;;;;;;8415762;27;27465;-72
2022/04/30 10:11:37;;;;;;;;;;;;;;;;;;8419364;27;28354;-72
2022/04/30 10:15:38;;;;;;;;;;;;;;;;;;8414946;27;28044;-73
2022/04/30 10:19:38;;;;;;;;;;;;;;;;;;8419432;27;27492;-73
2022/04/30 10:23:38;;;;;;;;;;;;;;;;;;8419670;27;28381;-73
2022/04/30 10:27:39;;;;;;;;;;;;;;;;;;8409561;27;28169;-73
2022/04/30 10:31:39;;;;;;;;;;;;;;;;;;8412339;27;27580;-73
2022/04/30 10:35:39;;;;;;;;;;;;;;;;;;8411129;27;27704;-72
2022/04/30 10:39:39;;;;;;;;;;;;;;;;;;8413289;27;27690;-72
2022/04/30 10:43:39;;;;;;;;;;;;;;;;;;8416376;27;27929;-72
2022/04/30 10:47:40;;;;;;;;;;;;;;;;;;8410726;27;27748;-72
2022/04/30 10:51:40;;;;;;;;;;;;;;;;;;8412798;27;27496;-72
2022/04/30 10:55:40;;;;;;;;;;;;;;;;;;8415003;27;27365;-72
2022/04/30 10:59:40;;;;;;;;;;;;;;;;;;8413152;27;27885;-71
2022/04/30 11:03:41;;;;;;;;;;;;;;;;;;8415051;27;28668;-72
2022/04/30 11:07:41;;;;;;;;;;;;;;;;;;8413045;27;28638;-72
2022/04/30 11:11:41;;;;;;;;;;;;;;;;;;8413399;27;28360;-72
2022/04/30 11:15:41;;;;;;;;;;;;;;;;;;8422482;27;27408;-72
2022/04/30 11:19:41;;;;;;;;;;;;;;;;;;8421922;27;27689;-73
2022/04/30 11:23:41;;;;;;;;;;;;;;;;;;8421540;27;28457;-72
2022/04/30 11:27:41;;;;;;;;;;;;;;;;;;8417443;27;28368;-72
2022/04/30 11:31:42;;;;;;;;;;;;;;;;;;8422262;27;28368;-72
2022/04/30 11:35:43;;;;;;;;;;;;;;;;;;8415854;27;28099;-72
2022/04/30 11:39:43;;;;;;;;;;;;;;;;;;8423275;27;27745;-71
2022/04/30 11:43:43;;;;;;;;;;;;;;;;;;8420688;27;27414;-71
2022/04/30 11:47:43;;;;;;;;;;;;;;;;;;8419419;27;27438;-71
2022/04/30 11:51:43;;;;;;;;;;;;;;;;;;8413789;27;27441;-72
2022/04/30 11:55:43;;;;;;;;;;;;;;;;;;8416921;27;27896;-72
2022/04/30 11:59:43;;;;;;;;;;;;;;;;;;8418873;27;28323;-71
2022/04/30 12:03:43;;;;;;;;;;;;;;;;;;8422732;27;28306;-72
2022/04/30 12:07:43;;;;;;;;;;;;;;;;;;8422204;27;27471;-72
2022/04/30 12:11:44;;;;;;;;;;;;;;;;;;8419739;27;28337;-72
2022/04/30 12:15:44;;;;;;;;;;;;;;;;;;8419155;27;27817;-72
2022/04/30 12:28:22;;;;;;;;;;;;;;;;;;8420594;27;27127;-71
2022/04/30 12:32:22;;;;;;;;;;;;;;;;;;8420293;27;27778;-72
2022/04/30 12:36:23;;;;;;;;;;;;;;;;;;8414818;27;27544;-71
2022/04/30 12:40:23;;;;;;;;;;;;;;;;;;8420517;27;27984;-72
2022/04/30 12:44:24;;;;;;;;;;;;;;;;;;8413973;27;28230;-72
2022/04/30 12:48:24;;;;;;;;;;;;;;;;;;8421008;27;27801;-72
2022/04/30 12:52:26;;;;;;;;;;;;;;;;;;8416069;27;28376;-72
2022/04/30 12:56:27;;;;;;;;;;;;;;;;;;8416182;27;27247;-72
2022/04/30 13:00:27;;;;;;;;;;;;;;;;;;8416910;27;28466;-72
2022/04/30 13:04:28;;;;;;;;;;;;;;;;;;8414974;27;28367;-72
2022/04/30 13:13:31;;;;;;;;;;;;;;;;;;8421454;27;28251;-72
2022/04/30 13:17:08;;;;;;;;;;;;;;;;;;8413742;27;28277;-72
2022/04/30 13:21:08;;;;;;;;;;;;;;;;;;8422143;27;27455;-71
2022/04/30 13:25:08;;;;;;;;;;;;;;;;;;8418879;27;27529;-71
2022/04/30 13:29:10;;;;;;;;;;;;;;;;;;8415314;27;27329;-72
2022/04/30 13:33:10;;;;;;;;;;;;;;;;;;8416963;27;28485;-72
2022/04/30 13:37:11;;;;;;;;;;;;;;;;;;8414921;27;27953;-72
2022/04/30 13:41:11;;;;;;;;;;;;;;;;;;8420045;27;27540;-72
2022/04/30 13:45:12;;;;;;;;;;;;;;;;;;8417549;27;29601;-72
2022/04/30 13:49:12;;;;;;;;;;;;;;;;;;8421271;27;27881;-72
2022/04/30 13:53:12;;;;;;;;;;;;;;;;;;8415593;27;27910;-72
2022/04/30 13:57:12;;;;;;;;;;;;;;;;;;8414958;27;27839;-72
2022/04/30 14:01:12;;;;;;;;;;;;;;;;;;8412825;27;27628;-73
2022/04/30 14:05:14;;;;;;;;;;;;;;;;;;8413308;27;27945;-72
2022/04/30 14:09:14;;;;;;;;;;;;;;;;;;8413740;27;27911;-72
2022/04/30 14:21:52;;;;;;;;;;;;;;;;;;8414100;27;27608;-72
2022/04/30 14:25:52;;;;;;;;;;;;;;;;;;8413906;27;28433;-72
2022/04/30 14:29:52;;;;;;;;;;;;;;;;;;8412192;27;28313;-72
2022/04/30 14:33:52;;;;;;;;;;;;;;;;;;8413235;27;27366;-72
2022/04/30 14:37:52;;;;;;;;;;;;;;;;;;8416014;27;27844;-72
2022/04/30 14:41:53;;;;;;;;;;;;;;;;;;8412252;27;27841;-72
2022/04/30 14:45:53;;;;;;;;;;;;;;;;;;8423272;27;28056;-72
2022/04/30 14:49:55;;;;;;;;;;;;;;;;;;8429351;27;27849;-72
2022/04/30 14:53:55;;;;;;;;;;;;;;;;;;8425585;27;29635;-72
2022/04/30 14:57:55;;;;;;;;;;;;;;;;;;8426599;27;28646;-73
2022/04/30 15:01:55;;;;;;;;;;;;;;;;;;8428441;27;27970;-73
2022/04/30 15:05:56;;;;;;;;;;;;;;;;;;8425131;27;28481;-72
2022/04/30 15:09:57;;;;;;;;;;;;;;;;;;8424063;27;27922;-73
2022/04/30 15:13:57;;;;;;;;;;;;;;;;;;8426671;27;27440;-72
2022/04/30 15:17:57;;;;;;;;;;;;;;;;;;8429804;27;28306;-74
2022/04/30 15:21:57;;;;;;;;;;;;;;;;;;8422517;27;28631;-74
2022/04/30 15:25:57;;;;;;;;;;;;;;;;;;8426902;27;28067;-74
2022/04/30 15:29:57;;;;;;;;;;;;;;;;;;8424090;27;27274;-74
2022/04/30 15:33:57;;;;;;;;;;;;;;;;;;8424443;27;28491;-74
2022/04/30 15:37:58;;;;;;;;;;;;;;;;;;8426242;27;28838;-75
2022/04/30 15:41:58;;;;;;;;;;;;;;;;;;8422985;27;27849;-73
2022/04/30 15:45:58;;;;;;;;;;;;;;;;;;8422601;27;28303;-73
2022/04/30 15:54:17;;;;;;;;;;;;;;;;;;8415673;27;27441;-72
2022/04/30 15:58:18;;;;;;;;;;;;;;;;;;8416389;27;28792;-72
2022/04/30 16:02:18;;;;;;;;;;;;;;;;;;8422814;27;27871;-72
2022/04/30 16:06:19;;;;;;;;;;;;;;;;;;8415867;27;28368;-73
2022/04/30 16:10:19;;;;;;;;;;;;;;;;;;8418019;27;27422;-72
2022/04/30 16:14:19;;;;;;;;;;;;;;;;;;8405848;27;28383;-72
2022/04/30 16:18:20;;;;;;;;;;;;;;;;;;8411785;27;27814;-74
2022/04/30 16:22:20;;;;;;;;;;;;;;;;;;8411730;27;28041;-73
2022/04/30 16:26:22;;;;;;;;;;;;;;;;;;8417236;27;28290;-73
2022/04/30 16:30:22;;;;;;;;;;;;;;;;;;8411681;27;27897;-73
2022/04/30 16:34:23;;;;;;;;;;;;;;;;;;8399824;27;27733;-72
2022/04/30 16:38:23;;;;;;;;;;;;;;;;;;8421933;27;27489;-73
2022/04/30 16:42:24;;;;;;;;;;;;;;;;;;8418893;27;29654;-73
2022/04/30 16:46:26;;;;;;;;;;;;;;;;;;8421678;27;27770;-73
2022/04/30 16:50:26;;;;;;;;;;;;;;;;;;8422417;27;27588;-73
2022/04/30 16:58:45;;;;;;;;;;;;;;;;;;8413166;27;28260;-72
2022/04/30 17:02:45;;;;;;;;;;;;;;;;;;8420653;27;27725;-72
2022/04/30 17:06:46;;;;;;;;;;;;;;;;;;8417618;27;28137;-72
2022/04/30 17:10:46;;;;;;;;;;;;;;;;;;8420209;27;28389;-72
2022/04/30 17:14:46;;;;;;;;;;;;;;;;;;8412797;27;28524;-73
2022/04/30 17:18:47;;;;;;;;;;;;;;;;;;8414679;27;27505;-72
2022/04/30 17:22:48;;;;;;;;;;;;;;;;;;8419613;27;27168;-73
2022/04/30 17:26:48;;;;;;;;;;;;;;;;;;8415179;27;27407;-73
2022/04/30 17:39:26;;;;;;;;;;;;;;;;;;8417897;27;28611;-72
2022/04/30 17:43:28;;;;;;;;;;;;;;;;;;8416711;27;27689;-73
2022/04/30 17:47:28;;;;;;;;;;;;;;;;;;8411398;27;28456;-73
2022/04/30 17:51:28;;;;;;;;;;;;;;;;;;8414971;27;29879;-73
2022/04/30 17:55:29;;;;;;;;;;;;;;;;;;8415887;27;27413;-73
2022/04/30 17:59:29;;;;;;;;;;;;;;;;;;8420257;27;27357;-72
2022/04/30 18:03:30;;;;;;;;;;;;;;;;;;8418712;27;27482;-72
2022/04/30 18:07:30;;;;;;;;;;;;;;;;;;8419665;27;27993;-73
2022/04/30 18:11:31;;;;;;;;;;;;;;;;;;8415984;27;27523;-74
2022/04/30 18:15:31;;;;;;;;;;;;;;;;;;8408368;27;28803;-73
2022/04/30 18:19:33;;;;;;;;;;;;;;;;;;8415842;27;28598;-73
2022/04/30 18:23:33;;;;;;;;;;;;;;;;;;8413834;27;27709;-73
2022/04/30 18:27:35;;;;;;;;;;;;;;;;;;8415162;27;27424;-73
2022/04/30 18:31:35;;;;;;;;;;;;;;;;;;8380900;27;28275;-73
2022/04/30 18:35:35;;;;;;;;;;;;;;;;;;8416399;27;27389;-73
2022/04/30 18:39:36;;;;;;;;;;;;;;;;;;8399199;27;27646;-73
2022/04/30 18:43:36;;;;;;;;;;;;;;;;;;8317895;28;28716;-73
2022/04/30 18:47:36;;;;;;;;;;;;;;;;;;8342411;28;28686;-73
2022/04/30 18:51:36;;;;;;;;;;;;;;;;;;8340232;28;27344;-73
2022/04/30 19:04:14;;;;;;;;;;;;;;;;;;8341539;28;27409;-73
2022/04/30 19:08:14;;;;;;;;;;;;;;;;;;8338295;28;27439;-73
2022/04/30 19:12:17;;;;;;;;;;;;;;;;;;8340209;28;27603;-73
2022/04/30 19:16:18;;;;;;;;;;;;;;;;;;8343662;28;28279;-74
2022/04/30 19:20:20;;;;;;;;;;;;;;;;;;8340745;28;27573;-74
2022/04/30 19:24:21;;;;;;;;;;;;;;;;;;8354017;28;28610;-73
2022/04/30 19:28:21;;;;;;;;;;;;;;;;;;8372741;27;28503;-73
2022/04/30 19:32:23;;;;;;;;;;;;;;;;;;8342940;28;27399;-73
2022/04/30 19:36:23;;;;;;;;;;;;;;;;;;8346092;28;28102;-73
2022/04/30 19:40:24;;;;;;;;;;;;;;;;;;8348544;28;27204;-73
2022/04/30 19:44:25;;;;;;;;;;;;;;;;;;8343761;28;28525;-73
2022/04/30 19:48:25;;;;;;;;;;;;;;;;;;8349096;28;27906;-73
2022/04/30 19:52:25;;;;;;;;;;;;;;;;;;8338840;28;28564;-73
2022/04/30 19:56:25;;;;;;;;;;;;;;;;;;8338533;28;28712;-73
2022/04/30 20:00:25;;;;;;;;;;;;;;;;;;8341997;28;27238;-73
2022/04/30 20:04:25;;;;;;;;;;;;;;;;;;8344724;28;27719;-73
2022/04/30 20:08:25;;;;;;;;;;;;;;;;;;8345019;28;27522;-73
2022/04/30 20:16:52;;;;;;;;;;;;;;;;;;8341139;28;27782;-73
2022/04/30 20:20:52;;;;;;;;;;;;;;;;;;8346616;28;28193;-73
2022/04/30 20:24:55;;;;;;;;;;;;;;;;;;8339847;28;28599;-73
2022/04/30 20:28:56;;;;;;;;;;;;;;;;;;8341967;28;28139;-74
2022/04/30 20:37:15;;;;;;;;;;;;;;;;;;8343566;28;27538;-72
2022/04/30 20:41:15;;;;;;;;;;;;;;;;;;8357767;28;29339;-73
2022/04/30 20:45:15;;;;;;;;;;;;;;;;;;8357976;28;30075;-73
2022/04/30 20:49:15;;;;;;;;;;;;;;;;;;8345398;28;27626;-73
2022/04/30 20:53:15;;;;;;;;;;;;;;;;;;8350502;28;27333;-72
2022/04/30 20:57:15;;;;;;;;;;;;;;;;;;8358739;28;28261;-73
2022/04/30 21:01:16;;;;;;;;;;;;;;;;;;8347194;28;27278;-73
2022/04/30 21:05:16;;;;;;;;;;;;;;;;;;8344917;28;27346;-74
2022/04/30 21:09:16;;;;;;;;;;;;;;;;;;8345036;28;27584;-74
2022/04/30 21:13:17;;;;;;;;;;;;;;;;;;8343041;28;27583;-73
2022/04/30 21:17:17;;;;;;;;;;;;;;;;;;8341834;28;27450;-73
2022/04/30 21:21:17;;;;;;;;;;;;;;;;;;8342337;28;27489;-74
2022/04/30 21:25:17;;;;;;;;;;;;;;;;;;8340778;28;27565;-73
2022/04/30 21:29:18;;;;;;;;;;;;;;;;;;8344767;28;27835;-73
2022/04/30 21:33:18;;;;;;;;;;;;;;;;;;8341741;28;27535;-73
2022/04/30 21:37:18;;;;;;;;;;;;;;;;;;8373966;27;29383;-73
2022/04/30 21:45:37;;;;;;;;;;;;;;;;;;8341677;28;28185;-73
2022/04/30 21:49:39;;;;;;;;;;;;;;;;;;8372868;27;28632;-73
2022/04/30 21:53:39;;;;;;;;;;;;;;;;;;8342538;28;27820;-74
2022/04/30 22:01:58;;;;;;;;;;;;;;;;;;8344166;28;27545;-73
2022/04/30 22:05:58;;;;;;;;;;;;;;;;;;8343277;28;27813;-73
2022/04/30 22:09:58;;;;;;;;;;;;;;;;;;8342820;28;28094;-73
2022/04/30 22:13:58;;;;;;;;;;;;;;;;;;8340802;28;28504;-73
2022/04/30 22:17:58;;;;;;;;;;;;;;;;;;8345597;28;27668;-73
2022/04/30 22:21:59;;;;;;;;;;;;;;;;;;8350682;28;29512;-73
2022/04/30 22:25:59;;;;;;;;;;;;;;;;;;8340921;28;27825;-73
2022/04/30 22:29:59;;;;;;;;;;;;;;;;;;8361514;28;28398;-73
2022/04/30 22:33:59;;;;;;;;;;;;;;;;;;8343918;28;27458;-73
2022/04/30 22:37:59;;;;;;;;;;;;;;;;;;8339732;28;27366;-74
2022/04/30 22:46:18;;;;;;;;;;;;;;;;;;8343579;28;27512;-73
2022/04/30 22:50:18;;;;;;;;;;;;;;;;;;8340992;28;28140;-73
2022/04/30 22:54:19;;;;;;;;;;;;;;;;;;8343237;28;27464;-74
2022/04/30 22:58:19;;;;;;;;;;;;;;;;;;8340796;28;27879;-73
2022/04/30 23:02:19;;;;;;;;;;;;;;;;;;8343486;28;28172;-73
2022/04/30 23:06:19;;;;;;;;;;;;;;;;;;8343592;28;27714;-73
2022/04/30 23:10:19;;;;;;;;;;;;;;;;;;8345344;28;27381;-73
2022/04/30 23:14:19;;;;;;;;;;;;;;;;;;8344824;28;28485;-73
2022/04/30 23:18:19;;;;;;;;;;;;;;;;;;8363760;28;28488;-73
2022/04/30 23:22:20;;;;;;;;;;;;;;;;;;8342127;28;27681;-73
2022/04/30 23:26:21;;;;;;;;;;;;;;;;;;8346080;28;29362;-73
2022/04/30 23:30:21;;;;;;;;;;;;;;;;;;8346961;28;28286;-73
2022/04/30 23:34:21;;;;;;;;;;;;;;;;;;8343778;28;28206;-73
2022/04/30 23:38:21;;;;;;;;;;;;;;;;;;8344538;28;28139;-74
2022/04/30 23:42:22;;;;;;;;;;;;;;;;;;8346636;28;27901;-74
2022/04/30 23:46:22;;;;;;;;;;;;;;;;;;8350306;28;27604;-74
2022/04/30 23:50:23;;;;;;;;;;;;;;;;;;8346073;28;27354;-74
2022/04/30 23:54:23;;;;;;;;;;;;;;;;;;8348106;28;27911;-74
2022/04/30 23:58:23;;;;;;;;;;;;;;;;;;8349736;28;27109;-73
